默认 日期 大小 文件数 浏览量 最新下载 xml
liquor磁力链接相关资源由用户搜索指令自动获取,结果来源于网络,本站不存储任何资料,亦不承担任何责任,请于24小时内删除,搜索到348个磁力,用时0ms。
    {"cover.jpg": 76246, "07. Escapes.mp3": 8229197, "03. Sad Spring.mp3": 6861899, "Original artwork.jpg": 207007, "02. Stay By My Side.mp3": 7044997, "04. To The Terminus.mp3": 7480331, "01. Accept Your Fate Now.mp3": 8760110, "06. When Innocence Is Just A ...
创建时间: 2018-10-28 03:21:22 大小:60.42 MB 文件数量:10 热度:35 最近下载:2025-08-01 16:27:08
    {"06 Bitch Bad 1.mp3": 11588216, "08 Put 'Em Up 1.mp3": 9465657, "03 ITAL (Roses) 1.mp3": 10602299, "11 Battle Scars 1.mp3": 9999436, "05 Audubon Ballroom 1.mp3": 11225343, "16 Hood Now (Outro) 1.mp3": 15270784, "07 Lamborghini Angels 1.mp3": 7862465, "01 ...
创建时间: 2018-10-28 10:43:51 大小:168.24 MB 文件数量:17 热度:45 最近下载:2025-10-10 12:42:03
    {"Trailer Park Boys - Countdown to Liquor Day (DL_King).avi": 755272054}
创建时间: 2018-10-28 15:50:49 大小:720.28 MB 文件数量:1 热度:25 最近下载:2025-08-04 06:41:03
    ... ": 10467405, "15 - Lock Up The Liquor (Feat. Anthony Geraci).mp3": 8637790 ...
创建时间: 2018-10-29 01:14:57 大小:148.44 MB 文件数量:17 热度:25 最近下载:2025-09-19 03:35:06
    {"18 Bitch Bad.m4v": 76755275, "06 Bitch Bad 1.mp3": 11588332, "08 Put 'Em Up 1.mp3": 9465100, "03 ITAL (Roses) 1.mp3": 10601951, "11 Battle Scars 1.mp3": 9999062, "05 Audubon Ballroom 1.mp3": 11225759, "16 Hood Now (Outro) 1.mp3": 15271605, "07 ...
创建时间: 2018-10-29 13:46:58 大小:298.08 MB 文件数量:19 热度:32 最近下载:2025-08-10 06:12:01
    {"lupe.jpg": 6837, "10-lupe_fiasco-cool.mp3": 5443584, "01-lupe_fiasco-intro.mp3": 4487168, "16-lupe_fiasco-outro.mp3": 17598464, "05-lupe_fiasco-i_gotcha.mp3": 5736448, "08-lupe_fiasco-sunshine.mp3": 5656576, "04-lupe_fiasco-kick_push.mp3": 6088704, "11- ...
创建时间: 2018-10-29 17:03:02 大小:99.26 MB 文件数量:18 热度:22 最近下载:2025-08-07 07:15:03
    {"S01E06 - Vodka.mp4": 34961008, "S01E05 - Italian Amaretto.mp4": 56474086, "Pilot Episode - First Attempt.mp4": 18049119, "Pilot Episode - Second Attempt.mp4": 15509344, "S01E04 - Potters Canadian Whisky.mp4": 44049326, "S01E01 - Bells Blended Scotch ...
创建时间: 2018-10-31 07:53:59 大小:282.58 MB 文件数量:8 热度:13 最近下载:2023-03-31 23:10:05
    {"xrated.key": 1024, "steam_api.dll": 225056, "NemuAndHaruka.png": 1338582, "tropical_liquor.p": 3077510248, "tropical_liquor.cfg": 2789, "tropical_liquor.exe": 4204544, "tropical_liquor.mus": 83016931, "girlcelly@[Anime-sharing.com].txt": 60, "H-Game ...
创建时间: 2018-11-01 15:43:33 大小:2.95 GB 文件数量:9 热度:24 最近下载:2025-03-06 18:45:02
    {"Trailer.Park.Boys.Countdown.to.Liquor.Day.chopper887.avi": 1519001600, "Trailer.Park.Boys.Countdown.to.Liquor.Day.chopper887.srt": 139187}
创建时间: 2018-11-01 15:56:59 大小:1.41 GB 文件数量:2 热度:12 最近下载:2023-04-05 11:40:02
    {"plaza.nfo": 3878, "README.txt": 148, "IGG-GAMES.COM.url": 198, "GAMESTORRENT.CO.url": 196, "plaza-tropical.liquor.iso": 3064627200}
创建时间: 2018-11-03 17:18:52 大小:2.85 GB 文件数量:5 热度:17 最近下载:2025-02-14 14:31:01
    ... 13 The Entertainer.flac": 6657490, "Liquor In The Front.cue": 2543 ... The Bad.flac": 19028422, "09 Liquor, Beer & Wine.flac": 23052977, ... , "The Reverend Horton Heat - Liquor In The Front.jpg": 58370 ... , "The Reverend Horton Heat - Liquor In The Front.m3u8": 1060}
创建时间: 2018-11-05 00:11:20 大小:256.33 MB 文件数量:19 热度:18 最近下载:2025-07-30 08:57:02
    {"xrated.key": 1024, "SmartSteamEmu": {"Common": {"620": {"items.bin": 444}, "730": {"items.bin": 3228}, "218620": {"inventory.bin": 76, "item_schema.bin": 1447855}, "Readme.txt": 86, "avatar.png": 797}, "Plugins": {"x64": {"SSEOverlay.dll": 1098752}, "x86 ...
创建时间: 2018-11-06 20:46:44 大小:3.06 GB 文件数量:228 热度:18 最近下载:2024-12-30 06:19:02
    {"V3nom.gif": 151778, "03 - Smile.mp3": 4614970, "15 - 'Gnac.mp3": 5379155, "17 - No. 2.mp3": 2974573, "04 - Top Ten.mp3": 1964415, "11 - Hangovers.mp3": 2650770, "18 - Lottahydro.mp3": 2924901, "14 - Tellier Beat.mp3": 2719599, "Cover - suff daddy.jpg": ...
创建时间: 2018-11-07 05:30:38 大小:64.49 MB 文件数量:30 热度:15 最近下载:2025-04-07 17:56:02
    {"wles2_34.mp4": 498255501, "vlcsnap-0288-04-11-18h57m59s239.jpg": 98183, "vlcsnap-1964-03-20-08h35m22s802.jpg": 84834, "vlcsnap-5336-03-20-21h25m24s220.jpg": 78707, "vlcsnap-6421-07-21-22h27m09s617.jpg": 93230, "09.06.2007_nikki,_jessica_lynn, ...
创建时间: 2018-11-08 09:21:27 大小:475.62 MB 文件数量:7 热度:13 最近下载:2025-10-18 01:56:02
    {"Sample": {"Sample.avi": 23035904}, "PrisM-trailer.avi": 1666744320, "prism-trailer.nfo": 1841}
创建时间: 2018-11-09 23:22:18 大小:1.57 GB 文件数量:3 热度:14 最近下载:2025-10-17 07:30:01
    {"folder.jpg": 175967, "05 - Hit It & Run.mp3": 11630737, "09 - 24-Hour Lover.mp3": 7178429, "03 - Slow Your Roll.mp3": 11733141, "06 - Bounce Your Butt.mp3": 9947415, "04 - You're My All & All.mp3": 12001690, "08 - You're Still My Boby.mp3": 10321496, "01 ...
创建时间: 2018-11-10 01:41:23 大小:112.01 MB 文件数量:13 热度:6 最近下载:2025-02-05 05:52:04
    ... Scene).mkv": 73367523, "The Liquor Savage (Deleted Scene).mkv": 22762523 ... Car Chase.mkv": 248457122, "Liquor Store Robber Aftermath.mkv": ... Making of the Countdown to Liquor Day.mkv": 667798890}, " ... Countdown to Liquor Day (2009) [+Director's ...
创建时间: 2018-11-10 04:08:00 大小:4.66 GB 文件数量:23 热度:8 最近下载:2025-03-21 09:13:02
    {"06-lupe_fiasco-bitch_bad.mp3": 8688375, "08-lupe_fiasco-put_em_up.mp3": 7672427, "03-lupe_fiasco-ital_(roses).mp3": 8260081, "05-lupe_fiasco-audubon_ballroom.mp3": 9253384, "16-lupe_fiasco-hood_now_(outro).mp3": 11855732, "07-lupe_fiasco- ...
创建时间: 2018-11-11 09:37:08 大小:124.95 MB 文件数量:21 热度:16 最近下载:2025-08-04 04:51:03
    ... ": 11850266, "Lupe Fiasco – Food And Liquor II The Great American Rap ...
创建时间: 2018-11-13 18:20:04 大小:158.66 MB 文件数量:20 热度:14 最近下载:2025-08-03 12:07:05
    {"02 Real.mp3": 9740288, "Release.jpg": 70820, "01 Intro.mp3": 7501824, "16 Outro.mp3": 29353984, "05 I Gotcha.mp3": 9584640, "08 Sunshine.mp3": 9451520, "10 The Cool.mp3": 9097216, "12 Pressure.mp3": 11511808, "04 Kick, Push.mp3": 10172416, "09 Daydreamin ...
创建时间: 2018-11-13 23:00:29 大小:165.86 MB 文件数量:17 热度:11 最近下载:2025-07-30 10:59:03